Time;durP1;ratioP1;P1;durP2;ratioP2;P2;SDS_P1;SDS_P2;PMS_P1;PMS_P2;Temp;Humidity;BMP_temperature;BMP_pressure;BME280_temperature;BME280_humidity;BME280_pressure;Samples;Min_cycle;Max_cycle;Signal;HPM_P1;HPM_P2
2022/11/06 00:01:36;;;;;;;12.85;6.75;;;;;;;;;;5076757;28;20052;-72
2022/11/06 00:04:03;;;;;;;11.73;6.47;;;;;;;;;;5080468;28;20052;-70
2022/11/06 00:06:47;;;;;;;16.40;6.78;;;;;;;;;;5083958;28;20411;-70
2022/11/06 00:09:16;;;;;;;13.02;6.90;;;;;;;;;;5077760;28;20048;-71
2022/11/06 00:11:43;;;;;;;11.77;6.35;;;;;;;;;;5086360;28;20637;-70
2022/11/06 00:14:12;;;;;;;15.40;6.70;;;;;;;;;;5082218;28;20134;-70
2022/11/06 00:16:39;;;;;;;13.90;6.53;;;;;;;;;;5083972;28;20054;-70
2022/11/06 00:19:07;;;;;;;16.50;6.25;;;;;;;;;;5079810;28;20609;-70
2022/11/06 00:21:35;;;;;;;15.73;6.80;;;;;;;;;;5085257;28;20410;-70
2022/11/06 00:24:03;;;;;;;13.55;6.60;;;;;;;;;;5083389;28;20066;-72
2022/11/06 00:26:31;;;;;;;13.93;6.15;;;;;;;;;;5078119;28;20058;-70
2022/11/06 00:28:59;;;;;;;13.95;6.00;;;;;;;;;;5080883;28;20055;-72
2022/11/06 00:31:29;;;;;;;11.68;5.40;;;;;;;;;;5074736;28;20442;-70
2022/11/06 00:33:56;;;;;;;13.20;5.53;;;;;;;;;;5083340;28;20063;-72
2022/11/06 00:36:24;;;;;;;12.95;5.53;;;;;;;;;;5085152;28;20059;-70
2022/11/06 00:38:52;;;;;;;11.60;5.35;;;;;;;;;;5080075;28;20048;-70
2022/11/06 00:41:20;;;;;;;15.20;5.53;;;;;;;;;;5081327;28;20579;-70
2022/11/06 00:43:49;;;;;;;10.30;5.35;;;;;;;;;;5081239;28;20068;-72
2022/11/06 00:46:16;;;;;;;15.38;5.30;;;;;;;;;;5084021;28;20044;-70
2022/11/06 00:48:45;;;;;;;11.98;5.40;;;;;;;;;;5083165;28;20052;-70
2022/11/06 00:51:13;;;;;;;11.07;5.30;;;;;;;;;;5084377;28;20086;-73
2022/11/06 00:53:41;;;;;;;10.45;5.30;;;;;;;;;;5076865;28;20048;-71
2022/11/06 00:56:09;;;;;;;15.50;5.53;;;;;;;;;;5081218;28;20082;-70
2022/11/06 00:58:37;;;;;;;14.98;5.32;;;;;;;;;;5079093;28;20047;-70
2022/11/06 01:01:08;;;;;;;14.30;5.72;;;;;;;;;;5083746;28;20044;-70
2022/11/06 01:03:35;;;;;;;15.40;6.05;;;;;;;;;;5081635;28;20044;-70
2022/11/06 01:06:08;;;;;;;21.65;5.97;;;;;;;;;;5065162;28;20060;-71
2022/11/06 01:08:36;;;;;;;17.92;5.93;;;;;;;;;;5076008;28;20045;-71
2022/11/06 01:11:06;;;;;;;13.68;5.57;;;;;;;;;;5082875;28;20502;-71
2022/11/06 01:13:34;;;;;;;11.95;6.50;;;;;;;;;;5064200;28;20059;-70
2022/11/06 01:16:01;;;;;;;13.80;6.10;;;;;;;;;;5065328;28;20052;-70
2022/11/06 01:18:28;;;;;;;17.80;6.63;;;;;;;;;;5078763;28;20048;-71
2022/11/06 01:20:55;;;;;;;13.35;5.80;;;;;;;;;;5081124;28;20414;-71
2022/11/06 01:23:24;;;;;;;16.45;6.45;;;;;;;;;;5082854;28;20054;-72
2022/11/06 01:25:58;;;;;;;14.27;6.03;;;;;;;;;;5079385;28;20091;-72
2022/11/06 01:28:25;;;;;;;16.63;6.57;;;;;;;;;;5066055;28;20063;-70
2022/11/06 01:30:53;;;;;;;15.20;6.00;;;;;;;;;;5059809;28;20086;-70
2022/11/06 01:33:20;;;;;;;15.75;6.50;;;;;;;;;;5064771;28;20059;-71
2022/11/06 01:35:48;;;;;;;14.13;6.85;;;;;;;;;;5062961;28;20055;-71
2022/11/06 01:38:16;;;;;;;13.43;6.70;;;;;;;;;;5082860;28;20117;-70
2022/11/06 01:40:45;;;;;;;20.30;7.38;;;;;;;;;;5084447;28;20051;-72
2022/11/06 01:43:15;;;;;;;12.43;6.35;;;;;;;;;;5081838;28;20510;-71
2022/11/06 01:45:43;;;;;;;15.20;6.35;;;;;;;;;;5062642;28;20068;-72
2022/11/06 01:48:11;;;;;;;15.40;6.53;;;;;;;;;;5085262;28;20044;-70
2022/11/06 01:50:38;;;;;;;21.60;6.65;;;;;;;;;;5082309;28;20056;-71
2022/11/06 01:53:06;;;;;;;15.00;6.22;;;;;;;;;;5085303;28;20052;-71
2022/11/06 01:55:35;;;;;;;19.70;6.70;;;;;;;;;;5063109;28;20412;-72
2022/11/06 01:58:05;;;;;;;16.13;6.82;;;;;;;;;;5066080;28;20048;-71
2022/11/06 02:00:33;;;;;;;15.20;6.72;;;;;;;;;;5078417;28;20683;-70
2022/11/06 02:03:01;;;;;;;12.82;7.13;;;;;;;;;;5084954;28;20051;-70
2022/11/06 02:05:28;;;;;;;14.05;6.90;;;;;;;;;;5083241;28;20144;-71
2022/11/06 02:07:56;;;;;;;14.07;7.68;;;;;;;;;;5083153;28;20044;-71
2022/11/06 02:10:23;;;;;;;14.02;7.20;;;;;;;;;;5080137;28;20055;-71
2022/11/06 02:12:55;;;;;;;13.40;7.20;;;;;;;;;;5083183;28;20056;-71
2022/11/06 02:15:28;;;;;;;17.98;8.32;;;;;;;;;;5082068;28;20055;-71
2022/11/06 02:18:04;;;;;;;15.75;7.75;;;;;;;;;;5079899;28;20051;-71
2022/11/06 02:20:34;;;;;;;18.05;8.15;;;;;;;;;;5081052;28;20075;-71
2022/11/06 02:23:06;;;;;;;15.27;7.85;;;;;;;;;;5065280;28;20053;-71
2022/11/06 02:25:39;;;;;;;17.37;8.20;;;;;;;;;;5065883;28;20502;-71
2022/11/06 02:28:09;;;;;;;18.77;8.23;;;;;;;;;;5077945;28;20282;-71
2022/11/06 02:30:41;;;;;;;19.58;8.85;;;;;;;;;;5067060;28;20059;-71
2022/11/06 02:33:10;;;;;;;16.10;8.52;;;;;;;;;;5084986;28;20043;-70
2022/11/06 02:35:41;;;;;;;15.32;8.43;;;;;;;;;;5061545;28;20426;-70
2022/11/06 02:38:10;;;;;;;16.67;8.68;;;;;;;;;;5082524;28;20052;-70
2022/11/06 02:40:38;;;;;;;15.40;8.48;;;;;;;;;;5085396;28;20056;-72
2022/11/06 02:43:08;;;;;;;15.75;8.63;;;;;;;;;;5067805;28;20052;-71
2022/11/06 02:45:39;;;;;;;13.93;8.80;;;;;;;;;;5081297;28;20508;-72
2022/11/06 02:48:08;;;;;;;15.05;8.65;;;;;;;;;;5070051;28;20059;-72
2022/11/06 02:50:38;;;;;;;16.98;8.32;;;;;;;;;;5070288;28;20048;-70
2022/11/06 02:53:06;;;;;;;14.15;8.27;;;;;;;;;;5067492;28;20040;-70
2022/11/06 02:55:36;;;;;;;18.10;9.25;;;;;;;;;;5085152;28;20441;-71
2022/11/06 02:58:06;;;;;;;17.15;8.85;;;;;;;;;;5083694;28;20063;-70
2022/11/06 03:00:36;;;;;;;16.52;8.85;;;;;;;;;;5066641;28;20048;-71
2022/11/06 03:03:06;;;;;;;17.48;8.85;;;;;;;;;;5086245;28;20120;-71
2022/11/06 03:05:35;;;;;;;16.77;8.80;;;;;;;;;;5085160;28;20040;-72
2022/11/06 03:08:04;;;;;;;14.30;9.27;;;;;;;;;;5066645;28;20064;-71
2022/11/06 03:10:34;;;;;;;20.83;9.90;;;;;;;;;;5064905;28;20056;-71
2022/11/06 03:13:07;;;;;;;19.30;9.20;;;;;;;;;;5065884;28;20059;-72
2022/11/06 03:15:39;;;;;;;17.87;9.53;;;;;;;;;;5082068;28;20052;-71
2022/11/06 03:18:09;;;;;;;16.98;9.05;;;;;;;;;;5086129;28;21652;-71
2022/11/06 03:20:40;;;;;;;18.05;9.15;;;;;;;;;;5066844;28;20051;-71
2022/11/06 03:23:13;;;;;;;16.33;9.32;;;;;;;;;;5065779;28;20483;-71
2022/11/06 03:25:44;;;;;;;17.48;9.85;;;;;;;;;;5082284;28;20056;-71
2022/11/06 03:28:12;;;;;;;20.33;9.38;;;;;;;;;;5069174;28;20053;-71
2022/11/06 03:30:43;;;;;;;15.10;8.40;;;;;;;;;;5081695;28;20158;-71
2022/11/06 03:33:14;;;;;;;22.90;9.57;;;;;;;;;;5067598;28;20160;-72
2022/11/06 03:35:44;;;;;;;16.42;9.25;;;;;;;;;;5068188;28;20070;-71
2022/11/06 03:38:11;;;;;;;14.32;9.20;;;;;;;;;;5065787;28;20071;-71
2022/11/06 03:40:42;;;;;;;17.88;9.40;;;;;;;;;;5068255;28;20052;-71
2022/11/06 03:43:11;;;;;;;15.48;8.95;;;;;;;;;;5065913;28;20059;-71
2022/11/06 03:45:40;;;;;;;18.23;9.30;;;;;;;;;;5066286;28;20051;-70
2022/11/06 03:48:11;;;;;;;16.30;9.27;;;;;;;;;;5067199;28;20048;-70
2022/11/06 03:50:41;;;;;;;16.83;10.18;;;;;;;;;;5083528;28;20469;-71
2022/11/06 03:53:10;;;;;;;19.13;9.98;;;;;;;;;;5064965;28;20048;-71
2022/11/06 03:55:40;;;;;;;14.93;9.13;;;;;;;;;;5064767;28;20059;-72
2022/11/06 03:58:09;;;;;;;18.85;10.15;;;;;;;;;;5083935;28;20052;-71
2022/11/06 04:00:39;;;;;;;17.63;10.02;;;;;;;;;;5078632;28;20044;-72
2022/11/06 04:03:08;;;;;;;19.48;9.75;;;;;;;;;;5060869;28;20054;-70
2022/11/06 04:05:39;;;;;;;18.63;9.02;;;;;;;;;;5081821;28;20048;-71
2022/11/06 04:13:59;;;;;;;17.20;9.65;;;;;;;;;;5078930;28;20040;-71
2022/11/06 04:16:28;;;;;;;20.38;10.25;;;;;;;;;;5059850;28;20062;-71
2022/11/06 04:18:55;;;;;;;15.90;9.55;;;;;;;;;;5064049;28;20059;-71
2022/11/06 04:21:27;;;;;;;15.02;9.85;;;;;;;;;;5063202;28;20786;-71
2022/11/06 04:26:48;;;;;;;19.50;10.40;;;;;;;;;;5060859;28;20044;-71
2022/11/06 04:29:21;;;;;;;16.02;9.60;;;;;;;;;;5065195;28;20534;-71
2022/11/06 04:31:52;;;;;;;16.40;9.20;;;;;;;;;;5061935;28;20055;-73
2022/11/06 04:34:22;;;;;;;17.63;8.98;;;;;;;;;;5079832;28;20076;-71
2022/11/06 04:36:55;;;;;;;19.63;9.15;;;;;;;;;;5066576;28;20110;-71
2022/11/06 04:39:27;;;;;;;15.32;9.45;;;;;;;;;;5085914;28;20084;-71
2022/11/06 04:41:58;;;;;;;20.35;10.10;;;;;;;;;;5066438;28;20048;-72
2022/11/06 04:44:29;;;;;;;19.60;10.25;;;;;;;;;;5065224;28;20390;-70
2022/11/06 04:46:57;;;;;;;19.20;9.60;;;;;;;;;;5084824;28;20052;-71
2022/11/06 04:49:25;;;;;;;21.80;9.93;;;;;;;;;;5066143;28;20056;-73
2022/11/06 04:51:54;;;;;;;14.30;9.07;;;;;;;;;;5084277;28;20051;-71
2022/11/06 04:54:22;;;;;;;16.63;9.15;;;;;;;;;;5066916;28;20055;-70
2022/11/06 04:56:50;;;;;;;16.40;9.25;;;;;;;;;;5084063;28;20040;-71
2022/11/06 04:59:18;;;;;;;19.15;9.10;;;;;;;;;;5069262;28;20056;-71
2022/11/06 05:01:47;;;;;;;13.85;8.60;;;;;;;;;;5063536;28;20052;-71
2022/11/06 05:04:14;;;;;;;15.65;9.43;;;;;;;;;;5082112;28;20775;-73
2022/11/06 05:06:41;;;;;;;13.50;8.73;;;;;;;;;;5085710;28;20036;-71
2022/11/06 05:09:10;;;;;;;16.85;9.23;;;;;;;;;;5068039;28;20040;-73
2022/11/06 05:11:37;;;;;;;14.75;8.90;;;;;;;;;;5066493;28;20044;-71
2022/11/06 05:14:05;;;;;;;15.80;8.93;;;;;;;;;;5066578;28;20137;-71
2022/11/06 05:16:32;;;;;;;16.13;9.13;;;;;;;;;;5075393;28;20055;-71
2022/11/06 05:18:59;;;;;;;17.95;9.35;;;;;;;;;;5080993;28;20056;-71
2022/11/06 05:24:13;;;;;;;17.10;10.00;;;;;;;;;;5061555;28;20036;-71
2022/11/06 05:26:40;;;;;;;13.50;7.95;;;;;;;;;;5062363;28;20403;-71
2022/11/06 05:29:07;;;;;;;17.25;8.05;;;;;;;;;;5079261;28;20043;-72
2022/11/06 05:31:34;;;;;;;13.02;8.50;;;;;;;;;;5062747;28;20446;-73
2022/11/06 05:34:02;;;;;;;17.27;7.97;;;;;;;;;;5063067;28;20068;-71
2022/11/06 05:36:29;;;;;;;15.02;8.30;;;;;;;;;;5055373;28;20091;-71
2022/11/06 05:38:56;;;;;;;15.02;8.73;;;;;;;;;;5063246;28;20145;-71
2022/11/06 05:41:25;;;;;;;11.80;7.90;;;;;;;;;;5066379;28;20052;-71
2022/11/06 05:43:52;;;;;;;15.93;8.27;;;;;;;;;;5063594;28;20059;-70
2022/11/06 05:46:19;;;;;;;17.17;8.65;;;;;;;;;;5063794;28;20044;-71
2022/11/06 05:48:46;;;;;;;16.55;8.50;;;;;;;;;;5065310;28;20044;-71
2022/11/06 05:51:14;;;;;;;13.65;8.43;;;;;;;;;;5063089;28;20060;-72
2022/11/06 05:53:41;;;;;;;14.90;8.98;;;;;;;;;;5066848;28;20056;-73
2022/11/06 05:56:08;;;;;;;16.15;9.13;;;;;;;;;;5065185;28;20104;-72
2022/11/06 05:58:37;;;;;;;17.17;9.18;;;;;;;;;;5062044;28;20059;-71
2022/11/06 06:01:05;;;;;;;16.63;9.18;;;;;;;;;;5065006;28;20047;-72
2022/11/06 06:03:35;;;;;;;15.38;9.93;;;;;;;;;;5063092;28;20486;-71
2022/11/06 06:06:05;;;;;;;19.42;10.15;;;;;;;;;;5060655;28;20051;-71
2022/11/06 06:08:32;;;;;;;18.98;9.43;;;;;;;;;;5061933;28;20419;-71
2022/11/06 06:10:59;;;;;;;17.27;9.07;;;;;;;;;;5064617;28;20048;-71
2022/11/06 06:13:27;;;;;;;17.30;9.02;;;;;;;;;;5063484;28;20601;-71
2022/11/06 06:15:55;;;;;;;16.90;9.45;;;;;;;;;;5065314;28;20053;-70
2022/11/06 06:18:23;;;;;;;15.65;9.10;;;;;;;;;;5064593;28;20052;-70
2022/11/06 06:20:50;;;;;;;20.33;9.65;;;;;;;;;;5063360;28;20649;-71
2022/11/06 06:23:17;;;;;;;15.75;9.35;;;;;;;;;;5059248;28;20060;-72
2022/11/06 06:25:44;;;;;;;12.43;8.93;;;;;;;;;;5059890;28;20059;-71
2022/11/06 06:28:11;;;;;;;17.08;8.93;;;;;;;;;;5058990;28;20056;-72
2022/11/06 06:30:39;;;;;;;18.00;9.38;;;;;;;;;;5063637;28;20048;-71
2022/11/06 06:33:07;;;;;;;17.52;8.82;;;;;;;;;;5063515;28;20392;-71
2022/11/06 06:35:35;;;;;;;16.15;9.35;;;;;;;;;;5061074;28;20048;-71
2022/11/06 06:38:02;;;;;;;18.00;10.43;;;;;;;;;;5065172;28;20048;-70
2022/11/06 06:40:30;;;;;;;15.10;9.88;;;;;;;;;;5061256;28;20059;-71
2022/11/06 06:42:57;;;;;;;16.77;10.48;;;;;;;;;;5059405;28;20086;-69
2022/11/06 06:45:24;;;;;;;19.25;11.45;;;;;;;;;;5059075;28;20593;-70
2022/11/06 06:47:52;;;;;;;16.90;12.23;;;;;;;;;;5059638;28;20541;-70
2022/11/06 06:50:21;;;;;;;20.33;13.32;;;;;;;;;;5060772;28;20446;-70
2022/11/06 06:52:48;;;;;;;26.10;14.95;;;;;;;;;;5060893;28;20051;-70
2022/11/06 06:55:15;;;;;;;30.80;15.73;;;;;;;;;;5065163;28;20057;-69
2022/11/06 06:57:42;;;;;;;29.05;15.18;;;;;;;;;;5063661;28;20048;-69
2022/11/06 07:00:10;;;;;;;28.58;15.98;;;;;;;;;;5058318;28;20046;-69
2022/11/06 07:02:37;;;;;;;34.53;17.27;;;;;;;;;;5066361;28;20056;-70
2022/11/06 07:05:05;;;;;;;29.73;15.60;;;;;;;;;;5065674;28;20056;-69
2022/11/06 07:07:34;;;;;;;33.30;18.17;;;;;;;;;;5065372;28;20063;-71
2022/11/06 07:10:01;;;;;;;29.50;15.75;;;;;;;;;;5065161;28;20045;-70
2022/11/06 07:12:28;;;;;;;26.20;14.82;;;;;;;;;;5058120;28;20127;-70
2022/11/06 07:14:55;;;;;;;28.95;14.32;;;;;;;;;;5056454;28;20135;-70
2022/11/06 07:17:23;;;;;;;29.50;13.63;;;;;;;;;;5060500;28;20048;-71
2022/11/06 07:19:50;;;;;;;21.70;13.43;;;;;;;;;;5063555;28;20059;-69
2022/11/06 07:22:17;;;;;;;28.00;14.43;;;;;;;;;;5057608;28;20428;-68
2022/11/06 07:24:46;;;;;;;33.15;15.18;;;;;;;;;;5064303;28;20052;-69
2022/11/06 07:27:13;;;;;;;29.75;13.63;;;;;;;;;;5065765;28;20044;-70
2022/11/06 07:29:40;;;;;;;25.75;14.05;;;;;;;;;;5064232;28;20045;-70
2022/11/06 07:32:08;;;;;;;24.05;12.32;;;;;;;;;;5060143;28;20045;-69
2022/11/06 07:34:37;;;;;;;27.23;13.32;;;;;;;;;;5070793;28;20541;-69
2022/11/06 07:37:05;;;;;;;24.65;12.98;;;;;;;;;;5082928;28;20036;-70
2022/11/06 07:39:32;;;;;;;37.72;14.93;;;;;;;;;;5084942;28;20052;-70
2022/11/06 07:42:01;;;;;;;25.58;12.88;;;;;;;;;;5061309;28;20125;-70
2022/11/06 07:44:28;;;;;;;23.20;12.40;;;;;;;;;;5082569;28;20056;-70
2022/11/06 07:46:55;;;;;;;21.52;11.70;;;;;;;;;;5080094;28;20041;-69
2022/11/06 07:49:22;;;;;;;23.65;11.52;;;;;;;;;;5082731;28;20490;-68
2022/11/06 07:51:50;;;;;;;23.45;11.38;;;;;;;;;;5078564;28;20055;-69
2022/11/06 07:54:17;;;;;;;24.52;10.82;;;;;;;;;;5083006;28;20050;-69
2022/11/06 07:56:44;;;;;;;20.98;10.23;;;;;;;;;;5061364;28;20041;-69
2022/11/06 07:59:13;;;;;;;24.17;10.23;;;;;;;;;;5078472;28;20047;-70
2022/11/06 08:01:40;;;;;;;23.38;10.32;;;;;;;;;;5079301;28;20048;-70
2022/11/06 08:04:08;;;;;;;16.70;9.25;;;;;;;;;;5077726;28;20052;-70
2022/11/06 08:06:35;;;;;;;17.38;7.85;;;;;;;;;;5065029;28;20047;-69
2022/11/06 08:09:05;;;;;;;17.25;8.52;;;;;;;;;;5078007;28;20138;-69
2022/11/06 08:11:32;;;;;;;22.52;8.15;;;;;;;;;;5085117;28;20491;-70
2022/11/06 08:14:00;;;;;;;18.95;7.72;;;;;;;;;;5060945;28;20052;-69
2022/11/06 08:16:29;;;;;;;16.95;8.02;;;;;;;;;;5080384;28;20420;-70
2022/11/06 08:18:56;;;;;;;14.38;7.03;;;;;;;;;;5077586;28;20499;-71
2022/11/06 08:21:23;;;;;;;16.35;6.70;;;;;;;;;;5081145;28;20047;-70
2022/11/06 08:23:50;;;;;;;15.00;6.20;;;;;;;;;;5083787;28;20044;-70
2022/11/06 08:26:18;;;;;;;18.17;6.78;;;;;;;;;;5082667;28;20662;-69
2022/11/06 08:28:45;;;;;;;17.50;7.25;;;;;;;;;;5082558;28;20051;-69
2022/11/06 08:31:12;;;;;;;24.02;6.53;;;;;;;;;;5080273;28;20076;-70
2022/11/06 08:33:42;;;;;;;17.13;5.88;;;;;;;;;;5081449;28;20248;-69
2022/11/06 08:36:10;;;;;;;21.70;7.32;;;;;;;;;;5082914;28;20144;-69
2022/11/06 08:38:37;;;;;;;19.33;6.15;;;;;;;;;;5084153;28;20048;-70
2022/11/06 08:41:05;;;;;;;19.17;5.32;;;;;;;;;;5084882;28;20047;-70
2022/11/06 08:43:32;;;;;;;19.73;5.57;;;;;;;;;;5083211;28;20085;-69
2022/11/06 08:46:00;;;;;;;19.42;6.57;;;;;;;;;;5084668;28;20099;-70
2022/11/06 08:48:27;;;;;;;18.35;5.38;;;;;;;;;;5085154;28;20482;-69
2022/11/06 08:50:56;;;;;;;16.75;5.60;;;;;;;;;;5084782;28;20048;-70
2022/11/06 08:53:23;;;;;;;21.60;5.68;;;;;;;;;;5080409;28;20414;-69
2022/11/06 08:55:50;;;;;;;12.90;4.50;;;;;;;;;;5066097;28;20059;-70
2022/11/06 08:58:18;;;;;;;17.05;5.10;;;;;;;;;;5082927;28;20056;-69
2022/11/06 09:00:45;;;;;;;20.80;5.35;;;;;;;;;;5084187;28;20426;-70
2022/11/06 09:03:16;;;;;;;16.80;5.30;;;;;;;;;;5081569;28;20394;-70
2022/11/06 09:05:44;;;;;;;13.13;4.55;;;;;;;;;;5079110;28;20076;-69
2022/11/06 09:08:13;;;;;;;12.45;5.00;;;;;;;;;;5083761;28;20040;-70
2022/11/06 09:10:41;;;;;;;13.93;4.65;;;;;;;;;;5080651;28;20120;-70
2022/11/06 09:13:08;;;;;;;17.63;5.15;;;;;;;;;;5083531;28;20048;-71
2022/11/06 09:15:35;;;;;;;15.80;5.40;;;;;;;;;;5078569;28;20755;-69
2022/11/06 09:18:03;;;;;;;14.23;5.18;;;;;;;;;;5088667;28;20060;-69
2022/11/06 09:20:30;;;;;;;17.40;5.28;;;;;;;;;;5087699;28;20048;-71
2022/11/06 09:23:01;;;;;;;14.48;5.28;;;;;;;;;;5070375;28;20051;-69
2022/11/06 09:25:29;;;;;;;10.27;4.35;;;;;;;;;;5088704;28;20054;-71
2022/11/06 09:27:57;;;;;;;21.25;6.00;;;;;;;;;;5084277;28;20048;-69
2022/11/06 09:30:24;;;;;;;13.82;4.70;;;;;;;;;;5082267;28;20052;-69
2022/11/06 09:32:52;;;;;;;16.15;4.63;;;;;;;;;;5085636;28;20051;-70
2022/11/06 09:35:21;;;;;;;18.58;4.90;;;;;;;;;;5087624;28;20071;-70
2022/11/06 09:37:48;;;;;;;15.20;4.97;;;;;;;;;;5085594;28;20051;-71
2022/11/06 09:40:20;;;;;;;18.58;5.20;;;;;;;;;;5085821;28;20406;-70
2022/11/06 09:42:54;;;;;;;16.73;4.90;;;;;;;;;;5085716;28;20078;-70
2022/11/06 09:45:23;;;;;;;11.07;5.20;;;;;;;;;;5087172;28;20051;-71
2022/11/06 09:47:53;;;;;;;17.83;5.70;;;;;;;;;;5083274;28;20377;-71
2022/11/06 09:50:25;;;;;;;17.73;5.55;;;;;;;;;;5063494;28;20075;-71
2022/11/06 09:52:54;;;;;;;14.60;5.20;;;;;;;;;;5085223;28;20051;-72
2022/11/06 09:55:25;;;;;;;15.05;5.20;;;;;;;;;;5084373;28;20062;-71
2022/11/06 09:57:55;;;;;;;15.50;6.07;;;;;;;;;;5081820;28;20085;-72
2022/11/06 10:00:22;;;;;;;25.25;6.70;;;;;;;;;;5085796;28;20048;-70
2022/11/06 10:02:51;;;;;;;22.77;7.03;;;;;;;;;;5086184;28;20059;-70
2022/11/06 10:05:24;;;;;;;24.02;5.88;;;;;;;;;;5082330;28;20052;-71
2022/11/06 10:07:53;;;;;;;13.52;5.53;;;;;;;;;;5083482;28;20690;-70
2022/11/06 10:10:21;;;;;;;15.55;5.13;;;;;;;;;;5076478;28;20044;-71
2022/11/06 10:12:58;;;;;;;15.27;5.05;;;;;;;;;;5083185;28;20071;-71
2022/11/06 10:15:27;;;;;;;24.45;5.82;;;;;;;;;;5077542;28;20101;-71
2022/11/06 10:17:59;;;;;;;20.77;4.85;;;;;;;;;;5063113;28;20051;-70
2022/11/06 10:20:28;;;;;;;17.25;4.63;;;;;;;;;;5086121;28;20052;-71
2022/11/06 10:23:03;;;;;;;16.90;5.32;;;;;;;;;;5066579;28;20056;-71
2022/11/06 10:25:38;;;;;;;15.93;4.97;;;;;;;;;;5079118;28;20058;-70
2022/11/06 10:28:14;;;;;;;15.43;5.13;;;;;;;;;;5087261;28;20044;-70
2022/11/06 10:30:45;;;;;;;15.25;4.60;;;;;;;;;;5065566;28;20067;-69
2022/11/06 10:33:20;;;;;;;18.83;5.07;;;;;;;;;;5084621;28;20052;-70
2022/11/06 10:35:51;;;;;;;23.92;6.00;;;;;;;;;;5079084;28;20056;-70
2022/11/06 10:38:20;;;;;;;39.13;8.00;;;;;;;;;;5080751;28;20040;-71
2022/11/06 10:40:49;;;;;;;18.25;6.32;;;;;;;;;;5083782;28;20130;-69
2022/11/06 10:43:23;;;;;;;16.35;5.75;;;;;;;;;;5085086;28;20674;-70
2022/11/06 10:45:52;;;;;;;16.65;6.65;;;;;;;;;;5083411;28;20055;-71
2022/11/06 10:48:24;;;;;;;18.92;7.03;;;;;;;;;;5085898;28;20059;-69
2022/11/06 10:50:56;;;;;;;26.65;7.65;;;;;;;;;;5084305;28;20859;-71
2022/11/06 10:53:30;;;;;;;25.20;5.95;;;;;;;;;;5085765;28;20044;-71
2022/11/06 10:56:03;;;;;;;19.90;7.30;;;;;;;;;;5086790;28;20052;-71
2022/11/06 10:58:32;;;;;;;13.20;6.32;;;;;;;;;;5081684;28;20311;-71
2022/11/06 11:01:00;;;;;;;22.65;6.88;;;;;;;;;;5085414;28;20075;-72
2022/11/06 11:03:30;;;;;;;18.70;6.47;;;;;;;;;;5080984;28;20340;-72
2022/11/06 11:05:57;;;;;;;15.07;6.25;;;;;;;;;;5062732;28;20071;-71
2022/11/06 11:08:42;;;;;;;21.23;6.82;;;;;;;;;;5083634;28;20048;-71
2022/11/06 11:11:17;;;;;;;14.23;5.65;;;;;;;;;;5082091;28;20051;-71
2022/11/06 11:13:47;;;;;;;21.42;6.05;;;;;;;;;;5067292;28;20056;-72
2022/11/06 11:16:17;;;;;;;24.77;6.28;;;;;;;;;;5063469;28;20056;-71
2022/11/06 11:18:44;;;;;;;13.73;5.22;;;;;;;;;;5069973;28;20459;-72
2022/11/06 11:21:16;;;;;;;23.58;6.05;;;;;;;;;;5082019;28;20043;-71
2022/11/06 11:23:43;;;;;;;16.80;6.03;;;;;;;;;;5078909;28;20094;-70
2022/11/06 11:26:28;;;;;;;15.80;5.00;;;;;;;;;;5081426;28;20059;-71
2022/11/06 11:28:58;;;;;;;17.02;6.03;;;;;;;;;;5067582;28;20040;-71
2022/11/06 11:31:29;;;;;;;17.00;5.15;;;;;;;;;;5084094;28;20424;-71
2022/11/06 11:33:58;;;;;;;22.17;5.80;;;;;;;;;;5080626;28;20044;-71
2022/11/06 11:36:25;;;;;;;15.45;6.13;;;;;;;;;;5078243;28;20559;-70
2022/11/06 11:38:53;;;;;;;25.40;6.30;;;;;;;;;;5081113;28;20044;-71
2022/11/06 11:41:23;;;;;;;17.17;5.50;;;;;;;;;;5059688;28;20053;-72
2022/11/06 11:43:58;;;;;;;14.75;5.30;;;;;;;;;;5063511;28;20074;-71
2022/11/06 11:46:26;;;;;;;19.60;5.50;;;;;;;;;;5067056;28;20052;-71
2022/11/06 11:48:54;;;;;;;14.07;5.45;;;;;;;;;;5084458;28;20044;-71
2022/11/06 11:51:26;;;;;;;22.88;6.45;;;;;;;;;;5081455;28;20087;-71
2022/11/06 11:53:55;;;;;;;17.63;5.90;;;;;;;;;;5062274;28;20068;-72
2022/11/06 11:56:22;;;;;;;18.63;5.60;;;;;;;;;;5063447;28;20067;-71
2022/11/06 11:58:50;;;;;;;15.27;5.10;;;;;;;;;;5082940;28;20069;-71
2022/11/06 12:01:19;;;;;;;14.93;4.82;;;;;;;;;;5080767;28;20048;-70
2022/11/06 12:03:51;;;;;;;13.63;4.97;;;;;;;;;;5065576;28;20660;-72
2022/11/06 12:06:19;;;;;;;13.25;4.50;;;;;;;;;;5078445;28;20045;-72
2022/11/06 12:08:47;;;;;;;14.32;5.38;;;;;;;;;;5083543;28;20135;-71
2022/11/06 12:11:16;;;;;;;21.60;6.20;;;;;;;;;;5083454;28;20052;-72
2022/11/06 12:13:43;;;;;;;14.43;5.00;;;;;;;;;;5078445;28;20037;-71
2022/11/06 12:16:14;;;;;;;17.42;5.43;;;;;;;;;;5081624;28;20048;-72
2022/11/06 12:18:44;;;;;;;12.80;4.53;;;;;;;;;;5085538;28;20401;-71
2022/11/06 12:21:15;;;;;;;17.20;4.35;;;;;;;;;;5065845;28;20410;-71
2022/11/06 12:23:44;;;;;;;16.67;4.30;;;;;;;;;;5081644;28;20223;-71
2022/11/06 12:26:20;;;;;;;21.23;4.32;;;;;;;;;;5064650;28;20044;-71
2022/11/06 12:28:50;;;;;;;9.88;3.63;;;;;;;;;;5061195;28;20083;-71
2022/11/06 12:31:20;;;;;;;15.23;3.45;;;;;;;;;;5065907;28;20048;-73
2022/11/06 12:33:49;;;;;;;14.75;3.30;;;;;;;;;;5079024;28;20048;-72
2022/11/06 12:36:19;;;;;;;10.45;3.00;;;;;;;;;;5081312;28;20123;-72
2022/11/06 12:38:49;;;;;;;11.90;3.50;;;;;;;;;;5081856;28;20044;-72
2022/11/06 12:41:22;;;;;;;13.02;3.42;;;;;;;;;;5083938;28;20051;-71
2022/11/06 12:43:50;;;;;;;15.13;3.40;;;;;;;;;;5057180;28;20079;-72
2022/11/06 12:46:21;;;;;;;11.88;3.83;;;;;;;;;;5080228;28;20130;-72
2022/11/06 12:49:03;;;;;;;16.30;3.47;;;;;;;;;;5080338;28;20043;-71
2022/11/06 12:51:34;;;;;;;13.35;3.00;;;;;;;;;;5027529;28;20059;-71
2022/11/06 12:54:08;;;;;;;11.82;2.83;;;;;;;;;;5066266;28;20066;-72
2022/11/06 12:56:38;;;;;;;7.88;2.63;;;;;;;;;;5078942;28;20071;-71
2022/11/06 12:59:10;;;;;;;15.13;2.78;;;;;;;;;;5080610;28;20032;-70
2022/11/06 13:01:43;;;;;;;12.15;2.47;;;;;;;;;;5066458;28;20060;-71
2022/11/06 13:04:29;;;;;;;7.57;2.57;;;;;;;;;;5082172;28;20060;-72
2022/11/06 13:07:06;;;;;;;9.73;2.70;;;;;;;;;;5080539;28;20044;-70
2022/11/06 13:09:35;;;;;;;9.13;3.17;;;;;;;;;;5079849;28;20564;-70
2022/11/06 13:12:06;;;;;;;17.08;3.63;;;;;;;;;;5082183;28;20047;-71
2022/11/06 13:14:36;;;;;;;12.80;2.92;;;;;;;;;;5079148;28;20062;-71
2022/11/06 13:17:06;;;;;;;14.30;2.80;;;;;;;;;;5078041;28;20047;-70
2022/11/06 13:19:37;;;;;;;18.10;2.78;;;;;;;;;;5077654;28;20079;-70
2022/11/06 13:22:12;;;;;;;10.65;2.83;;;;;;;;;;5081693;28;20043;-70
2022/11/06 13:24:41;;;;;;;10.95;3.33;;;;;;;;;;5080095;28;20044;-70
2022/11/06 13:27:12;;;;;;;10.80;3.40;;;;;;;;;;5078839;28;20045;-70
2022/11/06 13:29:40;;;;;;;18.33;4.03;;;;;;;;;;5078661;28;20048;-70
2022/11/06 13:32:12;;;;;;;10.05;3.15;;;;;;;;;;5064097;28;20079;-70
2022/11/06 13:34:40;;;;;;;14.98;3.42;;;;;;;;;;5080959;28;20056;-70
2022/11/06 13:37:13;;;;;;;10.70;3.60;;;;;;;;;;5083684;28;20044;-71
2022/11/06 13:39:43;;;;;;;8.93;3.28;;;;;;;;;;5080436;28;20044;-69
2022/11/06 13:42:21;;;;;;;20.83;4.50;;;;;;;;;;5081030;28;20044;-70
2022/11/06 13:44:49;;;;;;;15.48;4.15;;;;;;;;;;5065746;28;20462;-70
2022/11/06 13:47:18;;;;;;;15.00;4.20;;;;;;;;;;5076457;28;20055;-69
2022/11/06 13:49:49;;;;;;;11.40;3.88;;;;;;;;;;5079733;28;20517;-70
2022/11/06 13:52:21;;;;;;;13.93;3.60;;;;;;;;;;5079785;28;20056;-70
2022/11/06 13:54:59;;;;;;;20.00;4.13;;;;;;;;;;5079623;28;20840;-69
2022/11/06 13:57:38;;;;;;;14.73;3.92;;;;;;;;;;5077880;28;20044;-69
2022/11/06 14:00:16;;;;;;;19.13;4.32;;;;;;;;;;5084389;28;20067;-70
2022/11/06 14:03:10;;;;;;;7.18;3.63;;;;;;;;;;5082895;28;20518;-70
2022/11/06 14:05:52;;;;;;;23.90;4.38;;;;;;;;;;5036428;28;20084;-69
2022/11/06 14:08:23;;;;;;;15.77;4.55;;;;;;;;;;5074058;28;20055;-70
2022/11/06 14:10:53;;;;;;;16.98;4.20;;;;;;;;;;5084699;28;20048;-70
2022/11/06 14:13:25;;;;;;;13.70;3.88;;;;;;;;;;5084091;28;20044;-71
2022/11/06 14:15:59;;;;;;;16.90;3.88;;;;;;;;;;5081435;28;20041;-70
2022/11/06 14:18:26;;;;;;;12.60;3.25;;;;;;;;;;5080484;28;20043;-71
2022/11/06 14:21:08;;;;;;;16.75;4.35;;;;;;;;;;5087217;28;20040;-71
2022/11/06 14:23:53;;;;;;;12.80;3.28;;;;;;;;;;5081689;28;20102;-71
2022/11/06 14:26:35;;;;;;;13.32;2.90;;;;;;;;;;5081499;28;20040;-71
2022/11/06 14:29:17;;;;;;;8.98;2.83;;;;;;;;;;5083211;28;20040;-72
2022/11/06 14:32:01;;;;;;;13.48;3.10;;;;;;;;;;5085328;28;20542;-70
2022/11/06 14:34:28;;;;;;;17.13;3.70;;;;;;;;;;5083590;28;20662;-70
2022/11/06 14:36:56;;;;;;;10.65;2.80;;;;;;;;;;5082505;28;20079;-70
2022/11/06 14:39:38;;;;;;;17.63;3.00;;;;;;;;;;5079005;28;20613;-71
2022/11/06 14:42:06;;;;;;;15.13;3.90;;;;;;;;;;5064932;28;20068;-71
2022/11/06 14:44:40;;;;;;;10.18;3.28;;;;;;;;;;5082935;28;20058;-70
2022/11/06 14:47:09;;;;;;;23.52;4.30;;;;;;;;;;5075282;28;20070;-69
2022/11/06 14:49:40;;;;;;;16.55;3.28;;;;;;;;;;5085190;28;20051;-69
2022/11/06 14:52:09;;;;;;;17.27;3.92;;;;;;;;;;5080740;28;20080;-70
2022/11/06 14:54:39;;;;;;;15.93;3.60;;;;;;;;;;5087313;28;20056;-70